createdAt,value
2022-12-07T04:56:22.390Z,2.30
2022-12-07T04:58:26.024Z,2.30
2022-12-07T05:00:29.592Z,2.40
2022-12-07T05:02:33.392Z,2.50
2022-12-07T05:04:40.890Z,2.60
2022-12-07T05:06:46.030Z,2.70
2022-12-07T05:08:50.209Z,2.70
2022-12-07T05:10:54.461Z,2.80
2022-12-07T05:12:58.410Z,2.90
2022-12-07T05:15:02.801Z,2.90
2022-12-07T05:17:08.090Z,3.00
2022-12-07T05:19:13.330Z,3.00
2022-12-07T05:21:17.279Z,3.00
2022-12-07T05:23:21.984Z,3.10
2022-12-07T05:25:29.849Z,3.10
2022-12-07T05:27:33.739Z,3.10
2022-12-07T05:29:39.161Z,3.10
2022-12-07T05:31:44.453Z,3.10
2022-12-07T05:33:48.441Z,3.10
2022-12-07T05:35:52.821Z,3.10
2022-12-07T05:37:57.461Z,3.20
2022-12-07T05:40:03.028Z,3.20
2022-12-07T05:42:16.940Z,3.20
2022-12-07T05:44:21.061Z,3.20
2022-12-07T05:46:25.542Z,3.20
2022-12-07T05:48:29.410Z,3.20
2022-12-07T05:50:33.650Z,3.10
2022-12-07T05:52:38.149Z,3.10
2022-12-07T05:54:45.519Z,3.10
2022-12-07T05:56:48.991Z,3.10
2022-12-07T05:59:12.040Z,3.10
2022-12-07T06:01:17.398Z,3.10
2022-12-07T06:03:21.289Z,3.10
2022-12-07T06:05:25.480Z,3.10
2022-12-07T06:07:29.736Z,3.10
2022-12-07T06:09:34.814Z,3.10
2022-12-07T06:11:58.389Z,3.10
2022-12-07T06:14:03.469Z,3.20
2022-12-07T06:16:08.235Z,3.20
2022-12-07T06:18:12.720Z,3.20
2022-12-07T06:20:16.669Z,3.20
2022-12-07T06:22:21.330Z,3.20
2022-12-07T06:24:25.799Z,3.20
2022-12-07T06:26:29.680Z,3.10
2022-12-07T06:28:34.173Z,3.10
2022-12-07T06:30:39.692Z,3.10
2022-12-07T06:32:43.439Z,3.10
2022-12-07T06:34:47.732Z,3.10
2022-12-07T06:36:54.870Z,3.10
2022-12-07T06:38:59.821Z,3.10
2022-12-07T06:41:04.279Z,3.10
2022-12-07T06:43:08.679Z,3.10
2022-12-07T06:45:13.550Z,3.10
2022-12-07T06:47:40.162Z,3.10
2022-12-07T06:49:42.135Z,3.10
2022-12-07T06:51:47.059Z,3.10
2022-12-07T06:53:51.362Z,3.10
2022-12-07T06:55:55.198Z,3.20
2022-12-07T06:57:59.711Z,3.20
2022-12-07T07:00:04.296Z,3.20
2022-12-07T07:02:09.057Z,3.20
2022-12-07T07:04:12.983Z,3.20
2022-12-07T07:06:18.450Z,3.20
2022-12-07T07:08:23.524Z,3.20
2022-12-07T07:10:27.970Z,3.20
2022-12-07T07:12:31.738Z,3.20
2022-12-07T07:14:36.053Z,3.30
2022-12-07T07:16:39.865Z,3.20
2022-12-07T07:18:43.860Z,3.20
2022-12-07T07:20:48.222Z,3.20
2022-12-07T07:22:54.071Z,3.30
2022-12-07T07:24:58.391Z,3.30
2022-12-07T07:27:02.180Z,3.30
2022-12-07T07:29:06.611Z,3.20
2022-12-07T07:31:10.980Z,3.20
2022-12-07T07:33:16.411Z,3.20
2022-12-07T07:35:21.002Z,3.30
2022-12-07T07:37:25.321Z,3.30
2022-12-07T07:39:29.782Z,3.30
2022-12-07T07:41:34.887Z,3.30
2022-12-07T07:43:39.190Z,3.40
2022-12-07T07:45:43.782Z,3.40
2022-12-07T07:47:47.980Z,3.40
2022-12-07T07:49:53.053Z,3.40
2022-12-07T07:51:57.327Z,3.40
2022-12-07T07:54:01.672Z,3.40
2022-12-07T07:56:08.941Z,3.40
2022-12-07T07:58:13.361Z,3.50
2022-12-07T08:00:19.230Z,3.50
2022-12-07T08:02:24.890Z,3.50
2022-12-07T08:04:29.544Z,3.50
2022-12-07T08:06:33.651Z,3.50
2022-12-07T08:08:38.580Z,3.50
2022-12-07T08:10:43.409Z,3.50
2022-12-07T08:13:06.860Z,3.50
2022-12-07T08:15:11.930Z,3.50
2022-12-07T08:17:16.840Z,3.50
2022-12-07T08:19:21.120Z,3.50
2022-12-07T08:21:25.921Z,3.50
2022-12-07T08:23:37.653Z,3.50
2022-12-07T08:25:44.049Z,3.50
2022-12-07T08:27:49.001Z,3.50
2022-12-07T08:29:52.389Z,3.60
2022-12-07T08:31:56.760Z,3.70
2022-12-07T08:34:02.411Z,3.80
2022-12-07T08:36:08.541Z,3.90
2022-12-07T08:38:12.921Z,3.90
2022-12-07T08:40:19.411Z,4.00
2022-12-07T08:42:25.750Z,3.90
2022-12-07T08:44:29.500Z,3.90
2022-12-07T08:46:59.000Z,3.90
2022-12-07T08:49:12.179Z,3.90
2022-12-07T08:51:17.451Z,4.00
2022-12-07T08:53:21.288Z,4.00
2022-12-07T08:55:25.461Z,4.00
2022-12-07T08:57:31.311Z,3.90
2022-12-07T08:59:38.022Z,3.90
2022-12-07T09:01:42.147Z,3.90
2022-12-07T09:03:47.110Z,3.90
2022-12-07T09:06:05.165Z,4.00
2022-12-07T09:08:11.329Z,3.90
2022-12-07T09:10:23.802Z,3.90
2022-12-07T09:12:28.682Z,3.90
2022-12-07T09:14:33.890Z,3.90
2022-12-07T09:16:37.740Z,3.90
2022-12-07T09:18:42.778Z,3.90
2022-12-07T09:20:47.809Z,4.00
2022-12-07T09:22:54.608Z,4.00
2022-12-07T09:24:59.272Z,4.10
2022-12-07T09:27:03.190Z,4.20
2022-12-07T09:29:07.468Z,4.20
2022-12-07T09:31:27.093Z,4.30
2022-12-07T09:33:32.550Z,4.30
2022-12-07T09:35:36.921Z,4.40
2022-12-07T09:37:41.178Z,4.40
2022-12-07T09:39:50.058Z,4.50
2022-12-07T09:41:57.472Z,4.40
2022-12-07T09:44:11.278Z,4.50
2022-12-07T09:46:20.748Z,4.50
2022-12-07T09:48:35.268Z,4.50
2022-12-07T09:50:39.490Z,4.60
2022-12-07T09:52:44.639Z,4.60
2022-12-07T09:54:52.158Z,4.60
2022-12-07T09:56:57.469Z,4.50
2022-12-07T09:59:05.487Z,4.40
2022-12-07T10:01:13.878Z,4.30
2022-12-07T10:03:17.709Z,4.20
2022-12-07T10:05:33.505Z,4.20
2022-12-07T10:07:38.822Z,4.10
2022-12-07T10:09:43.118Z,4.10
2022-12-07T10:12:08.840Z,3.90
2022-12-07T10:14:17.100Z,3.90
2022-12-07T10:16:27.573Z,3.90
2022-12-07T10:18:40.511Z,3.90
2022-12-07T10:20:44.389Z,3.80
2022-12-07T10:23:05.241Z,3.80
2022-12-07T10:25:22.549Z,3.80
2022-12-07T10:27:35.653Z,3.80
2022-12-07T10:29:41.959Z,3.60
2022-12-07T10:31:48.225Z,3.50
2022-12-07T10:33:54.371Z,3.50
2022-12-07T10:35:58.719Z,3.50
2022-12-07T10:38:03.347Z,3.50
2022-12-07T10:40:30.019Z,3.50
2022-12-07T10:42:35.539Z,3.50
2022-12-07T10:44:39.882Z,3.50
2022-12-07T10:46:55.320Z,3.50
2022-12-07T10:49:18.089Z,3.50
2022-12-07T10:51:39.427Z,3.50
2022-12-07T10:54:05.115Z,3.60
2022-12-07T10:56:49.694Z,3.60
2022-12-07T10:59:18.028Z,3.60
2022-12-07T11:01:46.282Z,3.50
2022-12-07T11:04:03.098Z,3.40
2022-12-07T11:06:13.427Z,3.40
2022-12-07T11:08:29.879Z,3.40
2022-12-07T11:11:17.288Z,3.30
2022-12-07T11:13:34.249Z,3.40
2022-12-07T11:15:59.410Z,3.30
2022-12-07T11:18:15.377Z,3.20
2022-12-07T11:20:22.548Z,3.10
2022-12-07T11:22:56.289Z,3.10
2022-12-07T11:25:25.692Z,3.10
2022-12-07T11:27:56.877Z,3.10
2022-12-07T11:30:15.823Z,3.10
2022-12-07T11:32:26.476Z,3.10
2022-12-07T11:34:55.049Z,3.10
2022-12-07T11:37:00.689Z,3.20
2022-12-07T11:39:17.318Z,3.20
2022-12-07T11:41:29.106Z,3.10
2022-12-07T11:43:38.938Z,3.00
2022-12-07T11:45:47.340Z,3.10
2022-12-07T11:48:10.698Z,3.00
2022-12-07T11:50:24.432Z,3.10
2022-12-07T11:52:38.399Z,3.00
2022-12-07T11:54:46.488Z,3.00
2022-12-07T11:56:55.969Z,3.00
2022-12-07T11:59:13.489Z,3.10
2022-12-07T12:01:20.170Z,3.20
2022-12-07T12:03:33.604Z,3.40
2022-12-07T12:05:38.689Z,3.50
2022-12-07T12:10:32.706Z,3.60
2022-12-07T12:15:45.787Z,3.70
2022-12-07T12:18:29.185Z,3.60
2022-12-07T12:20:51.659Z,3.60
2022-12-07T12:23:25.149Z,3.60
2022-12-07T12:25:36.659Z,3.50
2022-12-07T12:27:42.668Z,3.50
2022-12-07T12:29:47.800Z,3.40
2022-12-07T12:32:31.718Z,3.40
2022-12-07T12:34:37.570Z,3.40
2022-12-07T12:36:44.843Z,3.50
2022-12-07T12:39:02.629Z,3.40
2022-12-07T12:41:08.613Z,3.40
2022-12-07T12:43:45.908Z,3.40
2022-12-07T12:45:50.355Z,3.30
2022-12-07T12:48:03.337Z,3.30
2022-12-07T12:50:28.665Z,3.30
2022-12-07T12:52:50.171Z,3.20
2022-12-07T12:55:12.722Z,3.20
2022-12-07T12:57:27.867Z,3.20
2022-12-07T12:59:42.478Z,3.20
2022-12-07T13:01:47.413Z,3.20
2022-12-07T13:03:59.438Z,3.20
2022-12-07T13:06:36.088Z,3.20
2022-12-07T13:08:45.058Z,3.20
2022-12-07T13:10:51.666Z,3.20
2022-12-07T13:13:23.159Z,3.20
2022-12-07T13:15:40.420Z,3.30
2022-12-07T13:17:44.238Z,3.30
2022-12-07T13:19:48.539Z,3.40
2022-12-07T13:21:52.560Z,3.30
2022-12-07T13:24:02.426Z,3.30
2022-12-07T13:26:22.332Z,3.30
2022-12-07T13:28:35.107Z,3.20
2022-12-07T13:31:07.544Z,3.10
2022-12-07T13:33:12.969Z,3.10
2022-12-07T17:39:02.449Z,0.80
2022-12-07T17:41:40.172Z,0.60
2022-12-07T17:43:44.430Z,0.70
2022-12-07T17:45:48.873Z,0.80
2022-12-07T17:47:53.290Z,1.10
2022-12-07T17:49:59.523Z,1.40
2022-12-07T17:52:26.869Z,1.60
2022-12-07T17:54:32.341Z,1.80
2022-12-07T17:56:38.249Z,1.80
2022-12-07T17:58:43.279Z,1.80
2022-12-07T18:00:47.773Z,1.90
2022-12-07T18:02:51.602Z,1.90
2022-12-07T18:04:56.089Z,2.00
2022-12-07T18:07:00.858Z,2.10
2022-12-07T18:09:06.401Z,2.20
2022-12-07T18:11:10.743Z,2.20
2022-12-07T18:13:34.185Z,2.20
2022-12-07T18:15:38.468Z,2.20
2022-12-07T18:17:45.687Z,2.30
2022-12-07T18:19:49.659Z,2.30
2022-12-07T18:21:54.628Z,2.20
2022-12-07T18:24:03.142Z,2.20
2022-12-07T18:26:08.110Z,2.20
2022-12-07T18:28:13.018Z,2.20
2022-12-07T18:30:17.459Z,2.10
2022-12-07T18:32:21.793Z,2.00
2022-12-07T18:34:25.589Z,1.90
2022-12-07T18:36:29.962Z,1.80
2022-12-07T18:38:36.570Z,1.80
2022-12-07T18:40:42.339Z,1.80
2022-12-07T18:42:49.089Z,1.90
2022-12-07T18:44:53.628Z,1.90
2022-12-07T18:46:58.122Z,2.00
2022-12-07T18:49:02.539Z,2.00
2022-12-07T18:51:19.310Z,1.90
2022-12-07T18:53:23.628Z,1.60
2022-12-07T18:55:48.238Z,1.50
2022-12-07T18:57:54.830Z,1.40
2022-12-07T19:00:15.719Z,1.60
2022-12-07T19:02:21.634Z,1.70
2022-12-07T19:04:26.017Z,1.80
2022-12-07T19:06:30.189Z,1.90
2022-12-07T19:08:36.353Z,2.00
2022-12-07T19:10:41.289Z,2.00
2022-12-07T19:12:45.721Z,2.00
2022-12-07T19:14:49.729Z,2.00
2022-12-07T19:16:56.730Z,2.00
2022-12-07T19:19:00.820Z,2.00
2022-12-07T19:21:05.578Z,2.00
2022-12-07T19:23:10.834Z,2.10
2022-12-07T19:25:24.380Z,2.10
2022-12-07T19:27:34.711Z,2.00
2022-12-07T19:29:41.410Z,2.00
2022-12-07T19:31:45.864Z,2.00
2022-12-07T19:33:50.867Z,2.10
2022-12-07T19:35:55.350Z,2.10
2022-12-07T19:37:59.740Z,2.10
2022-12-07T19:40:04.779Z,2.10
2022-12-07T19:42:09.863Z,2.10
2022-12-07T19:44:20.130Z,2.10
2022-12-07T19:46:24.030Z,2.10
2022-12-07T19:48:27.728Z,2.10
2022-12-07T19:50:32.338Z,2.10
2022-12-07T19:52:36.982Z,2.10
2022-12-07T19:54:42.950Z,2.20
2022-12-07T19:56:47.529Z,2.10
2022-12-07T19:58:51.438Z,2.10
2022-12-07T20:00:55.784Z,2.10
2022-12-07T20:03:00.351Z,2.10
2022-12-07T20:05:06.546Z,2.10
2022-12-07T20:07:11.206Z,2.10
2022-12-07T20:09:15.701Z,2.00
2022-12-07T20:11:41.071Z,2.00
2022-12-07T20:13:45.359Z,2.00
2022-12-07T20:15:49.588Z,2.00
2022-12-07T20:17:53.820Z,2.00
2022-12-07T20:19:58.940Z,2.00
2022-12-07T20:22:03.179Z,2.10
2022-12-07T20:24:08.948Z,2.10
2022-12-07T20:26:14.511Z,2.10
2022-12-07T20:28:18.539Z,2.10
2022-12-07T20:30:22.721Z,2.10
2022-12-07T20:32:26.979Z,2.00
2022-12-07T20:34:31.370Z,2.00
